LFCR 221130Z AUTO 35003KT 300V090 CAVOK 10/03 Q1033 NOSIG

ElémentsDécodage
LFCR Station météo située sur l'aérodrome de RODEZ Marcillac
221130Z émis le 22 du mois à 11h30 UTC
AUTO Bulletin édité par un automate
35003KT vent du 350°, 03 noeuds
300V090 vent de direction variable entre 300° et 090°
CAVOK Ceiling And Visibility OK
- Visibilité de 10 Km ou plus
- Pas de nuage au-dessous de 1500m ou au-dessous de l'altitude minimale du secteur la plus élevée (si>1500m) et absence de CB
- pas de temps présent significatif
10/03 température 10°C, point de rosée 03°C
 soit une humidité relative de 62%
Q1033 la pression au niveau de la mer (QNH) est de 1033 hPa
NOSIG Pas de changement significatif prévu au cours des deux heures suivant l'heure de l'observation